sensor_id;sensor_type;location;lat;lon;timestamp;pressure;altitude;pressure_sealevel;temperature;humidity
76623;BME280;65513;47.564;18.948;2022-11-25T00:00:47;98454.56;;;4.16;74.95
76623;BME280;65513;47.564;18.948;2022-11-25T00:03:13;98455.09;;;4.19;74.66
76623;BME280;65513;47.564;18.948;2022-11-25T00:05:38;98463.31;;;4.17;74.66
76623;BME280;65513;47.564;18.948;2022-11-25T00:08:04;98467.31;;;4.20;74.92
76623;BME280;65513;47.564;18.948;2022-11-25T00:10:29;98473.47;;;4.25;74.74
76623;BME280;65513;47.564;18.948;2022-11-25T00:12:54;98470.50;;;4.22;74.88
76623;BME280;65513;47.564;18.948;2022-11-25T00:15:20;98469.41;;;4.18;75.32
76623;BME280;65513;47.564;18.948;2022-11-25T00:17:45;98463.81;;;4.14;75.00
76623;BME280;65513;47.564;18.948;2022-11-25T00:20:11;98463.75;;;4.09;75.23
76623;BME280;65513;47.564;18.948;2022-11-25T00:22:36;98464.28;;;4.06;75.08
76623;BME280;65513;47.564;18.948;2022-11-25T00:25:02;98473.28;;;4.05;75.77
76623;BME280;65513;47.564;18.948;2022-11-25T00:27:27;98469.78;;;3.99;75.80
76623;BME280;65513;47.564;18.948;2022-11-25T00:29:53;98470.31;;;4.01;75.31
76623;BME280;65513;47.564;18.948;2022-11-25T00:32:18;98469.53;;;4.01;76.10
76623;BME280;65513;47.564;18.948;2022-11-25T00:34:43;98483.38;;;4.08;75.45
76623;BME280;65513;47.564;18.948;2022-11-25T00:37:09;98474.91;;;4.11;75.47
76623;BME280;65513;47.564;18.948;2022-11-25T00:39:34;98478.63;;;4.10;75.05
76623;BME280;65513;47.564;18.948;2022-11-25T00:42:00;98479.41;;;4.10;75.17
76623;BME280;65513;47.564;18.948;2022-11-25T00:44:44;98482.66;;;4.18;75.17
76623;BME280;65513;47.564;18.948;2022-11-25T00:47:14;98484.63;;;4.27;75.17
76623;BME280;65513;47.564;18.948;2022-11-25T00:49:45;98481.91;;;4.22;74.54
76623;BME280;65513;47.564;18.948;2022-11-25T00:52:15;98492.53;;;4.22;74.87
76623;BME280;65513;47.564;18.948;2022-11-25T00:54:41;98488.81;;;4.23;74.69
76623;BME280;65513;47.564;18.948;2022-11-25T00:57:09;98484.03;;;4.20;74.69
76623;BME280;65513;47.564;18.948;2022-11-25T00:59:34;98493.56;;;4.21;74.99
76623;BME280;65513;47.564;18.948;2022-11-25T01:02:00;98497.28;;;4.20;74.46
76623;BME280;65513;47.564;18.948;2022-11-25T01:04:25;98493.31;;;4.23;74.58
76623;BME280;65513;47.564;18.948;2022-11-25T01:06:51;98493.56;;;4.21;74.62
76623;BME280;65513;47.564;18.948;2022-11-25T01:09:18;98495.44;;;4.21;74.60
76623;BME280;65513;47.564;18.948;2022-11-25T01:11:43;98495.19;;;4.22;74.38
76623;BME280;65513;47.564;18.948;2022-11-25T01:14:08;98497.72;;;4.12;74.03
76623;BME280;65513;47.564;18.948;2022-11-25T01:16:34;98509.13;;;4.12;74.75
76623;BME280;65513;47.564;18.948;2022-11-25T01:19:00;98509.44;;;4.16;74.59
76623;BME280;65513;47.564;18.948;2022-11-25T01:21:28;98510.25;;;4.16;74.79
76623;BME280;65513;47.564;18.948;2022-11-25T01:23:55;98508.63;;;4.15;74.43
76623;BME280;65513;47.564;18.948;2022-11-25T01:26:23;98514.75;;;4.16;74.62
76623;BME280;65513;47.564;18.948;2022-11-25T01:28:53;98507.84;;;4.15;74.70
76623;BME280;65513;47.564;18.948;2022-11-25T01:31:20;98517.69;;;4.20;74.58
76623;BME280;65513;47.564;18.948;2022-11-25T01:33:50;98508.63;;;4.15;74.62
76623;BME280;65513;47.564;18.948;2022-11-25T01:36:17;98508.59;;;4.10;74.19
76623;BME280;65513;47.564;18.948;2022-11-25T01:38:43;98503.03;;;4.12;74.41
76623;BME280;65513;47.564;18.948;2022-11-25T01:41:11;98513.44;;;4.19;74.62
76623;BME280;65513;47.564;18.948;2022-11-25T01:43:37;98510.75;;;4.13;74.39
76623;BME280;65513;47.564;18.948;2022-11-25T01:46:23;98516.25;;;4.07;75.08
76623;BME280;65513;47.564;18.948;2022-11-25T01:48:53;98512.84;;;4.11;75.04
76623;BME280;65513;47.564;18.948;2022-11-25T01:51:54;98513.34;;;4.08;75.32
76623;BME280;65513;47.564;18.948;2022-11-25T01:54:27;98512.19;;;3.99;75.03
76623;BME280;65513;47.564;18.948;2022-11-25T01:57:07;98515.63;;;4.00;75.38
76623;BME280;65513;47.564;18.948;2022-11-25T01:59:39;98509.03;;;4.02;75.45
76623;BME280;65513;47.564;18.948;2022-11-25T02:02:06;98505.28;;;3.98;75.85
76623;BME280;65513;47.564;18.948;2022-11-25T02:04:33;98511.38;;;3.99;75.63
76623;BME280;65513;47.564;18.948;2022-11-25T02:07:07;98512.44;;;3.98;75.32
76623;BME280;65513;47.564;18.948;2022-11-25T02:09:36;98504.13;;;3.89;76.10
76623;BME280;65513;47.564;18.948;2022-11-25T02:12:03;98507.53;;;3.84;75.80
76623;BME280;65513;47.564;18.948;2022-11-25T02:14:28;98508.94;;;3.92;75.50
76623;BME280;65513;47.564;18.948;2022-11-25T02:16:54;98508.13;;;3.92;75.34
76623;BME280;65513;47.564;18.948;2022-11-25T02:19:28;98511.47;;;3.82;75.58
76623;BME280;65513;47.564;18.948;2022-11-25T02:22:00;98519.47;;;3.87;74.77
76623;BME280;65513;47.564;18.948;2022-11-25T02:24:36;98520.34;;;3.93;74.35
76623;BME280;65513;47.564;18.948;2022-11-25T02:27:04;98524.63;;;3.99;74.36
76623;BME280;65513;47.564;18.948;2022-11-25T02:29:29;98535.31;;;4.04;74.06
76623;BME280;65513;47.564;18.948;2022-11-25T02:31:56;98523.16;;;4.08;73.89
76623;BME280;65513;47.564;18.948;2022-11-25T02:34:21;98522.53;;;4.01;74.06
76623;BME280;65513;47.564;18.948;2022-11-25T02:36:47;98520.19;;;4.04;74.45
76623;BME280;65513;47.564;18.948;2022-11-25T02:39:13;98520.75;;;4.06;73.98
76623;BME280;65513;47.564;18.948;2022-11-25T02:41:55;98531.34;;;4.06;73.87
76623;BME280;65513;47.564;18.948;2022-11-25T02:44:21;98532.66;;;4.04;74.16
76623;BME280;65513;47.564;18.948;2022-11-25T02:46:46;98534.75;;;4.02;74.29
76623;BME280;65513;47.564;18.948;2022-11-25T02:49:12;98519.03;;;3.95;73.88
76623;BME280;65513;47.564;18.948;2022-11-25T02:51:40;98523.84;;;3.98;74.02
76623;BME280;65513;47.564;18.948;2022-11-25T02:54:06;98514.63;;;4.06;73.88
76623;BME280;65513;47.564;18.948;2022-11-25T02:56:33;98507.84;;;4.15;73.20
76623;BME280;65513;47.564;18.948;2022-11-25T02:59:00;98507.34;;;4.18;72.35
76623;BME280;65513;47.564;18.948;2022-11-25T03:01:26;98513.75;;;4.22;72.69
76623;BME280;65513;47.564;18.948;2022-11-25T03:03:52;98526.19;;;4.22;71.79
76623;BME280;65513;47.564;18.948;2022-11-25T03:06:17;98527.81;;;4.23;71.88
76623;BME280;65513;47.564;18.948;2022-11-25T03:08:43;98515.88;;;4.25;72.02
76623;BME280;65513;47.564;18.948;2022-11-25T03:11:08;98533.78;;;4.35;71.62
76623;BME280;65513;47.564;18.948;2022-11-25T03:13:34;98526.00;;;4.28;71.60
76623;BME280;65513;47.564;18.948;2022-11-25T03:15:59;98523.28;;;4.23;71.81
76623;BME280;65513;47.564;18.948;2022-11-25T03:18:25;98531.25;;;4.23;71.80
76623;BME280;65513;47.564;18.948;2022-11-25T03:20:54;98528.09;;;4.26;71.82
76623;BME280;65513;47.564;18.948;2022-11-25T03:23:21;98544.59;;;4.33;71.22
76623;BME280;65513;47.564;18.948;2022-11-25T03:25:46;98543.00;;;4.32;71.33
76623;BME280;65513;47.564;18.948;2022-11-25T03:28:12;98548.66;;;4.36;71.53
76623;BME280;65513;47.564;18.948;2022-11-25T03:30:37;98547.84;;;4.35;71.52
76623;BME280;65513;47.564;18.948;2022-11-25T03:33:03;98549.06;;;4.28;71.81
76623;BME280;65513;47.564;18.948;2022-11-25T03:35:28;98559.94;;;4.26;72.10
76623;BME280;65513;47.564;18.948;2022-11-25T03:37:54;98565.19;;;4.21;72.34
76623;BME280;65513;47.564;18.948;2022-11-25T03:40:19;98562.28;;;4.23;72.53
76623;BME280;65513;47.564;18.948;2022-11-25T03:42:44;98562.56;;;4.26;72.39
76623;BME280;65513;47.564;18.948;2022-11-25T03:45:12;98557.28;;;4.26;72.40
76623;BME280;65513;47.564;18.948;2022-11-25T03:47:39;98554.38;;;4.28;72.35
76623;BME280;65513;47.564;18.948;2022-11-25T03:50:05;98559.38;;;4.24;72.01
76623;BME280;65513;47.564;18.948;2022-11-25T03:52:30;98558.88;;;4.27;72.14
76623;BME280;65513;47.564;18.948;2022-11-25T03:54:56;98564.69;;;4.24;72.18
76623;BME280;65513;47.564;18.948;2022-11-25T03:57:21;98575.22;;;4.19;72.03
76623;BME280;65513;47.564;18.948;2022-11-25T03:59:47;98569.38;;;4.17;71.93
76623;BME280;65513;47.564;18.948;2022-11-25T04:02:12;98574.88;;;4.10;72.51
76623;BME280;65513;47.564;18.948;2022-11-25T04:04:38;98577.81;;;4.14;71.82
76623;BME280;65513;47.564;18.948;2022-11-25T04:07:04;98577.72;;;4.04;71.83
76623;BME280;65513;47.564;18.948;2022-11-25T04:09:29;98580.38;;;4.04;72.06
76623;BME280;65513;47.564;18.948;2022-11-25T04:11:54;98579.88;;;4.07;71.47
76623;BME280;65513;47.564;18.948;2022-11-25T04:14:38;98588.56;;;4.02;72.46
76623;BME280;65513;47.564;18.948;2022-11-25T04:17:04;98585.19;;;4.07;72.15
76623;BME280;65513;47.564;18.948;2022-11-25T04:19:29;98591.03;;;4.09;72.41
76623;BME280;65513;47.564;18.948;2022-11-25T04:21:55;98588.56;;;4.02;72.53
76623;BME280;65513;47.564;18.948;2022-11-25T04:24:24;98598.38;;;4.02;72.41
76623;BME280;65513;47.564;18.948;2022-11-25T04:26:49;98603.25;;;3.88;73.03
76623;BME280;65513;47.564;18.948;2022-11-25T04:29:15;98605.09;;;3.66;73.78
76623;BME280;65513;47.564;18.948;2022-11-25T04:31:40;98603.97;;;3.45;74.78
76623;BME280;65513;47.564;18.948;2022-11-25T04:34:05;98618.75;;;3.41;74.46
76623;BME280;65513;47.564;18.948;2022-11-25T04:36:31;98616.28;;;3.51;74.50
76623;BME280;65513;47.564;18.948;2022-11-25T04:38:57;98616.75;;;3.48;74.54
76623;BME280;65513;47.564;18.948;2022-11-25T04:41:22;98621.47;;;3.46;74.54
76623;BME280;65513;47.564;18.948;2022-11-25T04:43:48;98626.38;;;3.54;74.23
76623;BME280;65513;47.564;18.948;2022-11-25T04:46:16;98617.94;;;3.57;73.80
76623;BME280;65513;47.564;18.948;2022-11-25T04:48:42;98624.91;;;3.63;73.83
76623;BME280;65513;47.564;18.948;2022-11-25T04:51:07;98631.09;;;3.69;73.45
76623;BME280;65513;47.564;18.948;2022-11-25T04:53:33;98632.31;;;3.61;73.37
76623;BME280;65513;47.564;18.948;2022-11-25T04:55:58;98623.06;;;3.64;73.41
76623;BME280;65513;47.564;18.948;2022-11-25T04:58:24;98630.22;;;3.63;73.02
76623;BME280;65513;47.564;18.948;2022-11-25T05:01:07;98645.56;;;3.61;73.02
76623;BME280;65513;47.564;18.948;2022-11-25T05:03:33;98648.22;;;3.61;73.59
76623;BME280;65513;47.564;18.948;2022-11-25T05:05:58;98651.19;;;3.48;73.35
76623;BME280;65513;47.564;18.948;2022-11-25T05:08:23;98656.94;;;3.45;73.63
76623;BME280;65513;47.564;18.948;2022-11-25T05:10:49;98658.25;;;3.42;73.85
76623;BME280;65513;47.564;18.948;2022-11-25T05:13:14;98661.06;;;3.36;73.76
76623;BME280;65513;47.564;18.948;2022-11-25T05:15:39;98666.59;;;3.34;73.33
76623;BME280;65513;47.564;18.948;2022-11-25T05:18:05;98671.09;;;3.34;73.40
76623;BME280;65513;47.564;18.948;2022-11-25T05:20:30;98680.63;;;3.35;73.30
76623;BME280;65513;47.564;18.948;2022-11-25T05:22:58;98676.47;;;3.39;73.54
76623;BME280;65513;47.564;18.948;2022-11-25T05:25:24;98682.31;;;3.41;73.58
76623;BME280;65513;47.564;18.948;2022-11-25T05:27:50;98688.59;;;3.51;72.94
76623;BME280;65513;47.564;18.948;2022-11-25T05:30:16;98696.06;;;3.55;72.86
76623;BME280;65513;47.564;18.948;2022-11-25T05:32:42;98706.50;;;3.61;72.90
76623;BME280;65513;47.564;18.948;2022-11-25T05:35:08;98699.03;;;3.58;72.39
76623;BME280;65513;47.564;18.948;2022-11-25T05:37:33;98693.72;;;3.58;72.94
76623;BME280;65513;47.564;18.948;2022-11-25T05:39:59;98698.63;;;3.49;72.80
76623;BME280;65513;47.564;18.948;2022-11-25T05:42:24;98701.19;;;3.44;73.00
76623;BME280;65513;47.564;18.948;2022-11-25T05:44:49;98703.03;;;3.44;72.52
76623;BME280;65513;47.564;18.948;2022-11-25T05:47:15;98703.19;;;3.37;72.51
76623;BME280;65513;47.564;18.948;2022-11-25T05:49:40;98700.63;;;3.26;73.44
76623;BME280;65513;47.564;18.948;2022-11-25T05:52:06;98711.03;;;3.15;73.26
76623;BME280;65513;47.564;18.948;2022-11-25T05:54:31;98713.91;;;3.14;73.26
76623;BME280;65513;47.564;18.948;2022-11-25T05:56:57;98718.31;;;3.08;73.41
76623;BME280;65513;47.564;18.948;2022-11-25T05:59:22;98717.13;;;2.99;73.81
76623;BME280;65513;47.564;18.948;2022-11-25T06:01:47;98718.44;;;2.85;73.46
76623;BME280;65513;47.564;18.948;2022-11-25T06:04:14;98714.84;;;2.91;73.21
76623;BME280;65513;47.564;18.948;2022-11-25T06:06:41;98729.59;;;2.87;73.40
76623;BME280;65513;47.564;18.948;2022-11-25T06:09:06;98723.69;;;2.68;73.70
76623;BME280;65513;47.564;18.948;2022-11-25T06:11:31;98728.84;;;2.75;73.08
76623;BME280;65513;47.564;18.948;2022-11-25T06:13:57;98735.06;;;2.69;73.82
76623;BME280;65513;47.564;18.948;2022-11-25T06:16:23;98740.38;;;2.57;73.64
76623;BME280;65513;47.564;18.948;2022-11-25T06:18:49;98735.47;;;2.49;74.10
76623;BME280;65513;47.564;18.948;2022-11-25T06:21:15;98739.72;;;2.50;74.63
76623;BME280;65513;47.564;18.948;2022-11-25T06:23:40;98737.63;;;2.52;74.41
76623;BME280;65513;47.564;18.948;2022-11-25T06:26:10;98744.19;;;2.49;74.54
76623;BME280;65513;47.564;18.948;2022-11-25T06:28:36;98748.81;;;2.42;75.18
76623;BME280;65513;47.564;18.948;2022-11-25T06:31:11;98750.97;;;2.57;74.56
76623;BME280;65513;47.564;18.948;2022-11-25T06:33:37;98743.81;;;2.58;74.39
76623;BME280;65513;47.564;18.948;2022-11-25T06:36:04;98739.69;;;2.62;74.58
76623;BME280;65513;47.564;18.948;2022-11-25T06:38:30;98738.66;;;2.63;74.67
76623;BME280;65513;47.564;18.948;2022-11-25T06:41:02;98752.13;;;2.61;74.92
76623;BME280;65513;47.564;18.948;2022-11-25T06:43:29;98753.03;;;2.67;75.41
76623;BME280;65513;47.564;18.948;2022-11-25T06:46:01;98759.28;;;2.89;74.75
76623;BME280;65513;47.564;18.948;2022-11-25T06:48:27;98754.41;;;2.98;73.48
76623;BME280;65513;47.564;18.948;2022-11-25T06:50:59;98757.38;;;3.01;74.11
76623;BME280;65513;47.564;18.948;2022-11-25T06:53:25;98760.34;;;3.05;74.25
76623;BME280;65513;47.564;18.948;2022-11-25T06:56:16;98770.59;;;3.46;73.36
76623;BME280;65513;47.564;18.948;2022-11-25T06:58:43;98767.34;;;3.90;72.76
76623;BME280;65513;47.564;18.948;2022-11-25T07:01:13;98766.69;;;5.03;68.75
76623;BME280;65513;47.564;18.948;2022-11-25T07:03:42;98775.25;;;6.38;64.52
76623;BME280;65513;47.564;18.948;2022-11-25T07:06:10;98786.25;;;7.30;62.25
76623;BME280;65513;47.564;18.948;2022-11-25T07:08:36;98782.03;;;8.00;60.21
76623;BME280;65513;47.564;18.948;2022-11-25T07:11:23;98783.44;;;8.92;57.61
76623;BME280;65513;47.564;18.948;2022-11-25T07:13:54;98801.59;;;10.13;52.91
76623;BME280;65513;47.564;18.948;2022-11-25T07:16:20;98796.13;;;11.00;50.72
76623;BME280;65513;47.564;18.948;2022-11-25T07:18:45;98795.38;;;11.74;49.68
76623;BME280;65513;47.564;18.948;2022-11-25T07:21:13;98800.25;;;12.05;47.80
76623;BME280;65513;47.564;18.948;2022-11-25T07:23:40;98797.38;;;12.01;48.20
76623;BME280;65513;47.564;18.948;2022-11-25T07:26:12;98798.78;;;12.86;46.37
76623;BME280;65513;47.564;18.948;2022-11-25T07:28:38;98802.72;;;13.44;45.42
76623;BME280;65513;47.564;18.948;2022-11-25T07:31:28;98806.25;;;14.11;43.53
